Time;durP1;ratioP1;P1;durP2;ratioP2;P2;SDS_P1;SDS_P2;PMS_P1;PMS_P2;Temp;Humidity;BMP_temperature;BMP_pressure;BME280_temperature;BME280_humidity;BME280_pressure;Samples;Min_cycle;Max_cycle;Signal;HPM_P1;HPM_P2
2022/05/30 00:00:25;;;;;;;1.53;1.10;;;11.80;99.90;;;;;;5116969;28;20244;-64
2022/05/30 00:02:51;;;;;;;1.53;1.03;;;11.80;99.90;;;;;;5116713;28;20159;-63
2022/05/30 00:05:19;;;;;;;1.60;1.30;;;11.80;99.90;;;;;;5116970;28;20166;-64
2022/05/30 00:07:45;;;;;;;1.07;1.00;;;11.70;99.90;;;;;;5116841;28;20186;-63
2022/05/30 00:10:11;;;;;;;2.03;1.30;;;11.70;99.90;;;;;;5117373;28;20234;-63
2022/05/30 00:12:37;;;;;;;2.43;1.10;;;11.60;99.90;;;;;;5116789;28;20170;-65
2022/05/30 00:15:10;;;;;;;1.90;0.93;;;11.60;99.90;;;;;;5117024;28;20167;-64
2022/05/30 00:17:36;;;;;;;2.40;1.53;;;11.70;99.90;;;;;;5118713;28;20158;-63
2022/05/30 00:20:03;;;;;;;1.20;1.17;;;11.60;99.90;;;;;;5118981;28;20162;-64
2022/05/30 00:22:28;;;;;;;1.07;0.97;;;11.70;99.90;;;;;;5118936;28;20214;-64
2022/05/30 00:24:54;;;;;;;1.00;0.90;;;11.60;99.90;;;;;;5116991;28;20616;-64
2022/05/30 00:27:19;;;;;;;1.40;1.00;;;11.60;99.90;;;;;;5116662;28;20337;-64
2022/05/30 00:29:45;;;;;;;1.57;1.30;;;11.60;99.90;;;;;;5116295;28;20623;-63
2022/05/30 00:32:11;;;;;;;1.30;1.20;;;11.60;99.90;;;;;;5116538;28;20162;-64
2022/05/30 00:34:38;;;;;;;2.37;1.30;;;11.30;99.90;;;;;;5116236;28;20249;-63
2022/05/30 00:37:04;;;;;;;1.37;1.17;;;11.50;99.90;;;;;;5115869;28;20162;-63
2022/05/30 00:39:30;;;;;;;1.47;1.00;;;11.40;99.90;;;;;;5116617;28;20598;-65
2022/05/30 00:42:15;;;;;;;2.20;1.30;;;11.40;99.90;;;;;;5116157;28;20162;-63
2022/05/30 00:44:46;;;;;;;1.43;1.33;;;11.60;99.90;;;;;;5116381;28;20577;-64
2022/05/30 00:47:12;;;;;;;1.37;1.20;;;11.40;99.90;;;;;;5116551;28;20200;-64
2022/05/30 00:49:40;;;;;;;1.53;1.30;;;11.50;99.90;;;;;;5116793;28;20171;-65
2022/05/30 00:52:08;;;;;;;1.17;1.07;;;11.30;99.90;;;;;;5116968;28;20237;-65
2022/05/30 00:54:40;;;;;;;5.20;1.23;;;11.40;99.90;;;;;;5116996;28;20190;-64
2022/05/30 00:57:20;;;;;;;1.23;1.13;;;11.40;99.90;;;;;;5115783;28;20162;-66
2022/05/30 00:59:51;;;;;;;1.33;1.13;;;11.60;99.90;;;;;;5116885;28;20168;-64
2022/05/30 01:02:17;;;;;;;4.17;1.20;;;11.50;99.90;;;;;;5116099;28;20241;-64
2022/05/30 01:07:27;;;;;;;1.40;1.30;;;11.60;99.90;;;;;;5115274;28;20277;-63
2022/05/30 01:09:55;;;;;;;1.43;1.27;;;11.60;99.90;;;;;;5115841;28;20190;-64
2022/05/30 01:12:40;;;;;;;1.30;1.20;;;11.70;99.90;;;;;;5115511;28;20503;-64
2022/05/30 01:15:10;;;;;;;4.97;1.20;;;11.60;99.90;;;;;;5115437;28;20166;-64
2022/05/30 01:17:47;;;;;;;2.03;1.30;;;11.60;99.90;;;;;;5115457;28;20257;-64
2022/05/30 01:20:33;;;;;;;1.87;1.20;;;11.70;99.90;;;;;;5115312;28;20177;-65
2022/05/30 01:23:14;;;;;;;1.40;1.20;;;11.70;99.90;;;;;;5115214;28;20602;-63
2022/05/30 01:26:04;;;;;;;1.47;1.20;;;11.70;99.90;;;;;;5115100;28;20178;-63
2022/05/30 01:28:35;;;;;;;1.23;1.03;;;11.60;99.90;;;;;;5084260;28;20237;-64
2022/05/30 01:31:00;;;;;;;1.47;1.33;;;11.60;99.90;;;;;;5114812;28;20190;-63
2022/05/30 01:33:26;;;;;;;1.60;1.40;;;11.60;99.90;;;;;;5115622;28;20528;-64
2022/05/30 01:35:52;;;;;;;3.40;1.47;;;11.60;99.90;;;;;;5115588;28;20278;-64
2022/05/30 01:38:18;;;;;;;2.33;1.60;;;11.50;99.90;;;;;;5114799;28;20179;-64
2022/05/30 01:40:43;;;;;;;1.60;1.10;;;11.50;99.90;;;;;;5115253;28;20201;-63
2022/05/30 01:43:09;;;;;;;1.43;1.33;;;11.50;99.90;;;;;;5115132;28;20158;-64
2022/05/30 01:45:35;;;;;;;2.30;1.67;;;11.40;99.90;;;;;;5115324;28;20173;-63
2022/05/30 01:48:01;;;;;;;3.23;1.27;;;11.40;99.90;;;;;;5114174;28;20324;-63
2022/05/30 01:50:28;;;;;;;3.03;1.40;;;11.40;99.90;;;;;;5115381;28;20169;-63
2022/05/30 01:52:54;;;;;;;1.47;1.37;;;11.40;99.90;;;;;;5114740;28;20258;-63
2022/05/30 01:55:19;;;;;;;1.43;1.33;;;11.30;99.90;;;;;;5114761;28;20590;-64
2022/05/30 01:57:45;;;;;;;3.27;1.30;;;11.30;99.90;;;;;;5114203;28;20173;-62
2022/05/30 02:00:11;;;;;;;1.37;1.20;;;11.40;99.90;;;;;;5114712;28;20219;-63
2022/05/30 02:02:37;;;;;;;2.53;1.40;;;11.40;99.90;;;;;;5114557;28;20219;-64
2022/05/30 02:05:07;;;;;;;2.80;1.53;;;11.40;99.90;;;;;;5114514;28;20158;-63
2022/05/30 02:07:33;;;;;;;1.80;1.47;;;11.50;99.90;;;;;;5114347;28;20550;-63
2022/05/30 02:09:58;;;;;;;1.93;1.50;;;11.40;99.90;;;;;;5114615;28;20158;-62
2022/05/30 02:12:24;;;;;;;1.47;1.37;;;11.40;99.90;;;;;;5114453;28;20158;-63
2022/05/30 02:14:50;;;;;;;2.40;1.60;;;11.40;99.90;;;;;;5114093;28;20173;-63
2022/05/30 02:17:15;;;;;;;1.60;1.50;;;11.30;99.90;;;;;;5114291;28;20170;-63
2022/05/30 02:19:44;;;;;;;2.10;1.70;;;11.40;99.90;;;;;;5114391;28;20159;-63
2022/05/30 02:22:18;;;;;;;2.27;1.50;;;11.40;99.90;;;;;;5096323;28;20463;-63
2022/05/30 02:24:45;;;;;;;1.93;1.60;;;11.40;99.90;;;;;;5114105;28;20228;-62
2022/05/30 02:27:12;;;;;;;1.60;1.40;;;11.40;99.90;;;;;;5114528;28;20744;-62
2022/05/30 02:29:38;;;;;;;4.57;1.67;;;11.40;99.90;;;;;;5114493;28;20162;-62
2022/05/30 02:32:05;;;;;;;1.50;1.40;;;11.30;99.90;;;;;;5114896;28;20502;-63
2022/05/30 02:37:14;;;;;;;1.63;1.33;;;11.20;99.90;;;;;;5113712;28;20609;-62
2022/05/30 02:39:40;;;;;;;2.03;1.50;;;11.20;99.90;;;;;;5114233;28;20620;-62
2022/05/30 02:42:07;;;;;;;1.50;1.40;;;11.20;99.90;;;;;;5114160;28;20164;-63
2022/05/30 02:44:33;;;;;;;2.07;1.80;;;11.20;99.90;;;;;;5113471;28;20659;-63
2022/05/30 02:46:59;;;;;;;1.50;1.40;;;11.10;99.90;;;;;;5113504;28;20202;-63
2022/05/30 02:49:26;;;;;;;2.07;1.50;;;11.20;99.90;;;;;;5098263;28;20340;-63
2022/05/30 02:51:52;;;;;;;3.60;1.90;;;11.20;99.90;;;;;;5093857;28;20169;-63
2022/05/30 02:54:18;;;;;;;2.00;1.80;;;11.00;99.90;;;;;;5093331;28;20260;-63
2022/05/30 02:56:51;;;;;;;2.07;1.70;;;11.10;99.90;;;;;;5093114;28;20171;-63
2022/05/30 02:59:18;;;;;;;2.83;1.37;;;11.10;99.90;;;;;;5093221;28;20276;-63
2022/05/30 03:01:44;;;;;;;2.77;1.83;;;11.10;99.90;;;;;;5093503;28;20198;-63
2022/05/30 03:04:09;;;;;;;2.30;1.67;;;11.10;99.90;;;;;;5093578;28;20178;-63
2022/05/30 03:06:35;;;;;;;2.37;1.77;;;11.10;99.90;;;;;;5093201;28;20163;-64
2022/05/30 03:09:02;;;;;;;2.50;1.83;;;11.10;99.90;;;;;;5093726;28;20230;-63
2022/05/30 03:11:27;;;;;;;2.53;1.50;;;11.10;99.90;;;;;;5093100;28;20614;-65
2022/05/30 03:13:53;;;;;;;1.70;1.50;;;11.00;99.90;;;;;;5093410;28;20166;-63
2022/05/30 03:16:19;;;;;;;2.90;1.63;;;11.00;99.90;;;;;;5093202;28;20557;-63
2022/05/30 03:18:45;;;;;;;1.60;1.50;;;10.90;99.90;;;;;;5093204;28;20163;-64
2022/05/30 03:21:11;;;;;;;1.30;1.20;;;11.00;99.90;;;;;;5093472;28;20605;-64
2022/05/30 03:23:38;;;;;;;3.00;1.90;;;10.90;99.90;;;;;;5093338;28;20209;-63
2022/05/30 03:26:04;;;;;;;3.60;2.00;;;11.00;99.90;;;;;;5075260;28;20186;-63
2022/05/30 03:28:31;;;;;;;1.50;1.40;;;11.10;99.90;;;;;;5093033;28;20283;-62
2022/05/30 03:30:58;;;;;;;1.93;1.70;;;11.00;99.90;;;;;;5094278;28;20173;-63
2022/05/30 03:33:23;;;;;;;2.97;1.53;;;11.00;99.90;;;;;;5096250;28;20179;-64
2022/05/30 03:35:49;;;;;;;3.53;1.67;;;10.80;99.90;;;;;;5095362;28;20568;-64
2022/05/30 03:38:14;;;;;;;2.07;1.80;;;10.90;99.90;;;;;;5093778;28;20177;-63
2022/05/30 03:40:40;;;;;;;3.57;1.70;;;10.90;99.90;;;;;;5092897;28;20169;-63
2022/05/30 03:43:09;;;;;;;2.60;1.50;;;10.90;99.90;;;;;;5093499;28;20575;-64
2022/05/30 03:45:40;;;;;;;2.70;1.57;;;10.90;99.90;;;;;;5093066;28;20162;-63
2022/05/30 03:48:07;;;;;;;1.70;1.50;;;10.90;99.90;;;;;;5092548;28;20320;-64
2022/05/30 03:50:33;;;;;;;2.47;1.77;;;10.90;99.90;;;;;;5093439;28;20179;-63
2022/05/30 03:53:05;;;;;;;2.50;1.70;;;10.90;99.90;;;;;;5092805;28;20619;-64
2022/05/30 03:55:34;;;;;;;2.20;1.90;;;10.80;99.90;;;;;;5092947;28;20187;-63
2022/05/30 03:58:06;;;;;;;3.60;1.90;;;10.70;99.90;;;;;;5092436;28;20171;-63
2022/05/30 04:00:33;;;;;;;2.87;2.10;;;10.70;99.90;;;;;;5092673;28;20226;-62
2022/05/30 04:03:00;;;;;;;2.07;1.70;;;10.80;99.90;;;;;;5093449;28;20263;-63
2022/05/30 04:05:26;;;;;;;3.00;1.70;;;10.80;99.90;;;;;;5093296;28;20194;-64
2022/05/30 04:07:52;;;;;;;2.10;1.90;;;10.90;99.90;;;;;;5075530;28;20206;-63
2022/05/30 04:10:18;;;;;;;3.13;1.90;;;10.90;99.90;;;;;;5093919;28;20588;-64
2022/05/30 04:12:44;;;;;;;2.40;2.00;;;10.90;99.90;;;;;;5096859;28;20220;-63
2022/05/30 04:15:20;;;;;;;2.47;2.00;;;10.80;99.90;;;;;;5096404;28;20170;-63
2022/05/30 04:17:46;;;;;;;2.23;1.93;;;10.90;99.90;;;;;;5096229;28;20166;-63
2022/05/30 04:20:12;;;;;;;1.97;1.80;;;10.90;99.90;;;;;;5078251;28;20251;-64
2022/05/30 04:22:38;;;;;;;2.30;2.07;;;10.90;99.90;;;;;;5096085;28;20163;-64
2022/05/30 04:25:04;;;;;;;3.67;2.03;;;10.80;99.90;;;;;;5096420;28;20174;-63
2022/05/30 04:27:29;;;;;;;2.33;1.83;;;10.80;99.90;;;;;;5095663;28;20227;-64
2022/05/30 04:29:55;;;;;;;2.20;2.00;;;10.70;99.90;;;;;;5096579;28;20171;-65
2022/05/30 04:32:22;;;;;;;1.73;1.63;;;10.70;99.90;;;;;;5096103;28;20551;-63
2022/05/30 04:34:48;;;;;;;3.33;1.90;;;10.60;99.90;;;;;;5096259;28;20174;-64
2022/05/30 04:37:14;;;;;;;1.70;1.60;;;10.80;99.90;;;;;;5096108;28;20185;-64
2022/05/30 04:39:39;;;;;;;2.33;2.10;;;10.80;99.90;;;;;;5096023;28;20263;-63
2022/05/30 04:42:05;;;;;;;1.83;1.70;;;11.00;99.90;;;;;;5096570;28;20163;-64
2022/05/30 04:44:31;;;;;;;1.90;1.70;;;11.00;99.90;;;;;;5096261;28;20171;-64
2022/05/30 04:46:58;;;;;;;2.27;2.00;;;11.10;99.90;;;;;;5096057;28;20198;-64
2022/05/30 04:49:25;;;;;;;4.27;2.10;;;11.20;99.90;;;;;;5095877;28;20562;-65
2022/05/30 04:51:51;;;;;;;2.60;1.90;;;11.30;99.90;;;;;;5095321;28;20183;-64
2022/05/30 04:54:19;;;;;;;2.10;1.80;;;11.10;99.90;;;;;;5077315;28;20262;-64
2022/05/30 04:56:45;;;;;;;3.30;2.17;;;10.90;99.90;;;;;;5095451;28;20187;-65
2022/05/30 04:59:13;;;;;;;3.37;2.30;;;10.90;99.90;;;;;;5077650;28;20210;-62
2022/05/30 05:01:39;;;;;;;4.57;2.70;;;11.00;99.90;;;;;;5095657;28;20169;-62
2022/05/30 05:04:08;;;;;;;3.50;1.97;;;11.00;99.90;;;;;;5095312;28;20176;-64
2022/05/30 05:06:34;;;;;;;2.87;2.30;;;11.00;99.90;;;;;;5095090;28;20225;-64
2022/05/30 05:09:15;;;;;;;3.80;2.63;;;11.00;99.90;;;;;;5094752;28;20583;-65
2022/05/30 05:11:41;;;;;;;2.73;1.67;;;11.10;99.90;;;;;;5095097;28;20663;-62
2022/05/30 05:14:06;;;;;;;1.70;1.60;;;11.20;99.90;;;;;;5076574;28;20171;-65
2022/05/30 05:16:32;;;;;;;4.87;1.90;;;11.30;99.90;;;;;;5095068;28;20583;-64
2022/05/30 05:18:58;;;;;;;2.40;1.70;;;11.40;99.90;;;;;;5095128;28;20166;-63
2022/05/30 05:21:27;;;;;;;2.30;1.83;;;11.60;99.90;;;;;;5094700;28;20159;-63
2022/05/30 05:23:53;;;;;;;2.03;1.80;;;11.70;99.90;;;;;;5093962;28;20208;-62
2022/05/30 05:26:19;;;;;;;2.00;1.80;;;11.70;99.90;;;;;;5094879;28;20569;-64
2022/05/30 05:28:45;;;;;;;1.63;1.50;;;11.80;99.90;;;;;;5094612;28;20190;-63
2022/05/30 05:31:17;;;;;;;3.77;1.80;;;11.70;99.90;;;;;;5095013;28;20207;-64
2022/05/30 05:33:43;;;;;;;4.33;1.60;;;11.70;99.90;;;;;;5094456;28;20206;-64
2022/05/30 05:36:09;;;;;;;1.97;1.60;;;11.70;99.90;;;;;;5094447;28;20160;-64
2022/05/30 05:38:34;;;;;;;1.70;1.60;;;11.70;99.90;;;;;;5094889;28;20499;-63
2022/05/30 05:41:00;;;;;;;2.53;1.80;;;11.80;99.90;;;;;;5094322;28;20163;-63
2022/05/30 05:43:26;;;;;;;3.47;1.90;;;11.70;99.90;;;;;;5094372;28;20167;-62
2022/05/30 05:45:51;;;;;;;2.50;1.80;;;11.70;99.90;;;;;;5094022;28;20159;-63
2022/05/30 05:48:17;;;;;;;2.70;1.50;;;11.60;99.90;;;;;;5094517;28;20198;-64
2022/05/30 05:50:43;;;;;;;2.93;1.87;;;11.60;99.90;;;;;;5094173;28;20174;-64
2022/05/30 05:53:10;;;;;;;2.67;1.67;;;11.50;99.90;;;;;;5094204;28;20628;-63
2022/05/30 05:55:38;;;;;;;2.10;1.90;;;11.60;99.90;;;;;;5094200;28;20198;-64
2022/05/30 05:58:04;;;;;;;2.17;1.90;;;11.60;99.90;;;;;;5093949;28;20595;-63
2022/05/30 06:00:31;;;;;;;3.17;1.90;;;11.50;99.90;;;;;;5093940;28;20501;-63
2022/05/30 06:02:57;;;;;;;4.70;2.13;;;11.60;99.90;;;;;;5093906;28;20165;-63
2022/05/30 06:05:23;;;;;;;2.60;2.27;;;11.80;99.90;;;;;;5093933;28;20155;-63
2022/05/30 06:07:49;;;;;;;4.70;2.53;;;12.10;99.90;;;;;;5093831;28;20198;-64
2022/05/30 06:10:15;;;;;;;4.50;3.50;;;12.40;99.90;;;;;;5093668;28;20170;-63
2022/05/30 06:12:43;;;;;;;4.77;3.50;;;12.70;99.90;;;;;;5102858;28;20163;-63
2022/05/30 06:15:11;;;;;;;4.10;3.00;;;12.80;99.90;;;;;;5106856;28;20515;-63
2022/05/30 06:17:46;;;;;;;8.97;3.60;;;12.80;99.90;;;;;;5094283;28;20555;-64
2022/05/30 06:20:14;;;;;;;4.83;3.40;;;12.80;99.90;;;;;;5093522;28;20157;-63
2022/05/30 06:22:40;;;;;;;6.03;4.20;;;12.70;99.90;;;;;;5093978;28;20586;-63
2022/05/30 06:25:06;;;;;;;5.73;4.10;;;12.60;99.90;;;;;;5094388;28;20167;-64
2022/05/30 06:27:32;;;;;;;7.13;4.53;;;12.50;99.90;;;;;;5093984;28;20286;-62
2022/05/30 06:29:58;;;;;;;6.93;4.10;;;12.40;99.90;;;;;;5093476;28;20173;-63
2022/05/30 06:32:24;;;;;;;6.93;4.53;;;12.30;99.90;;;;;;5094206;28;20175;-62
2022/05/30 06:34:51;;;;;;;8.03;4.77;;;12.10;99.90;;;;;;5093583;28;20167;-63
2022/05/30 06:37:16;;;;;;;6.77;4.33;;;12.30;99.90;;;;;;5093097;28;20289;-63
2022/05/30 06:39:42;;;;;;;7.90;5.33;;;12.20;99.90;;;;;;5093886;28;20183;-63
2022/05/30 06:42:12;;;;;;;10.40;5.13;;;12.20;99.90;;;;;;5093703;28;20151;-63
2022/05/30 06:44:39;;;;;;;8.53;5.03;;;12.20;99.90;;;;;;5093933;28;20186;-65
2022/05/30 06:47:07;;;;;;;7.17;5.13;;;12.30;99.90;;;;;;5094701;28;20202;-63
2022/05/30 06:49:33;;;;;;;7.30;4.60;;;12.30;99.90;;;;;;5100669;28;20226;-67
2022/05/30 06:51:59;;;;;;;9.43;5.00;;;12.30;99.90;;;;;;5103490;28;20223;-63
2022/05/30 06:54:25;;;;;;;13.07;4.83;;;12.30;99.90;;;;;;5095827;28;20195;-63
2022/05/30 06:59:35;;;;;;;7.43;5.43;;;12.40;99.90;;;;;;5093543;28;20672;-64
2022/05/30 07:02:02;;;;;;;7.90;5.07;;;12.50;99.90;;;;;;5092977;28;20169;-63
2022/05/30 07:04:35;;;;;;;6.87;4.73;;;12.50;99.90;;;;;;5093527;28;20169;-63
2022/05/30 07:07:04;;;;;;;7.00;5.27;;;12.50;99.90;;;;;;5093238;28;20202;-62
2022/05/30 07:09:29;;;;;;;5.63;4.40;;;12.60;99.90;;;;;;5093125;28;20159;-63
2022/05/30 07:11:55;;;;;;;6.03;4.53;;;12.50;99.90;;;;;;5093535;28;20170;-63
2022/05/30 07:14:20;;;;;;;9.27;4.90;;;12.50;99.90;;;;;;5093222;28;20159;-63
2022/05/30 07:16:46;;;;;;;8.87;4.60;;;12.50;99.90;;;;;;5093035;28;20217;-64
2022/05/30 07:19:12;;;;;;;7.20;4.37;;;12.70;99.90;;;;;;5093617;28;20167;-63
2022/05/30 07:21:39;;;;;;;6.07;4.47;;;12.80;99.90;;;;;;5093404;28;20169;-64
2022/05/30 07:24:05;;;;;;;6.73;4.97;;;12.70;99.90;;;;;;5092625;28;20182;-63
2022/05/30 07:26:31;;;;;;;5.93;4.17;;;12.80;99.90;;;;;;5092823;28;20171;-63
2022/05/30 07:28:56;;;;;;;5.17;4.03;;;12.90;99.90;;;;;;5092658;28;20198;-64
2022/05/30 07:31:25;;;;;;;6.57;4.23;;;13.00;99.90;;;;;;5092446;28;20163;-65
2022/05/30 07:33:51;;;;;;;3.63;3.33;;;13.00;99.90;;;;;;5097071;28;20180;-64
2022/05/30 07:36:26;;;;;;;4.47;3.60;;;13.20;99.90;;;;;;5112682;28;20163;-63
2022/05/30 07:38:53;;;;;;;3.53;3.07;;;13.40;99.90;;;;;;5113275;28;20226;-64
2022/05/30 07:41:19;;;;;;;6.33;3.53;;;13.60;99.90;;;;;;5112705;28;20165;-63
2022/05/30 07:43:45;;;;;;;5.37;3.60;;;13.40;99.90;;;;;;5113194;28;20163;-64
2022/05/30 07:46:14;;;;;;;4.40;3.30;;;13.20;99.90;;;;;;5114707;28;20210;-64
2022/05/30 07:48:41;;;;;;;4.40;3.93;;;13.10;99.90;;;;;;5117104;28;20210;-63
2022/05/30 07:51:08;;;;;;;6.17;4.00;;;13.20;99.90;;;;;;5117411;28;20166;-64
2022/05/30 07:53:35;;;;;;;4.27;3.37;;;13.00;99.90;;;;;;5117049;28;20207;-63
2022/05/30 07:56:05;;;;;;;4.13;3.53;;;13.10;99.90;;;;;;5117153;28;20177;-65
2022/05/30 07:58:31;;;;;;;6.67;3.63;;;13.20;99.90;;;;;;5117272;28;20170;-64
2022/05/30 08:00:57;;;;;;;4.63;3.77;;;13.20;99.90;;;;;;5116866;28;20494;-66
2022/05/30 08:03:25;;;;;;;4.30;3.70;;;13.10;99.90;;;;;;5117063;28;20162;-66
2022/05/30 08:05:52;;;;;;;6.83;3.90;;;13.10;99.90;;;;;;5116744;28;20168;-65
2022/05/30 08:08:18;;;;;;;5.10;3.90;;;13.00;99.90;;;;;;5116321;28;20228;-65
2022/05/30 08:10:44;;;;;;;4.80;3.37;;;13.00;99.90;;;;;;5116754;28;20166;-66
2022/05/30 08:13:09;;;;;;;4.40;3.47;;;13.00;99.90;;;;;;5116865;28;20463;-63
2022/05/30 08:15:35;;;;;;;5.40;3.90;;;13.10;99.90;;;;;;5116577;28;20166;-65
2022/05/30 08:18:02;;;;;;;5.60;3.47;;;13.30;99.90;;;;;;5116021;28;20166;-63
2022/05/30 08:20:29;;;;;;;4.87;3.43;;;13.50;99.90;;;;;;5116494;28;20215;-64
2022/05/30 08:22:55;;;;;;;4.43;3.67;;;13.80;99.90;;;;;;5116480;28;20158;-64
2022/05/30 08:25:21;;;;;;;5.47;3.43;;;14.00;99.90;;;;;;5116569;28;20169;-65
2022/05/30 08:27:48;;;;;;;4.70;3.40;;;14.40;99.90;;;;;;5116090;28;20236;-65
2022/05/30 08:30:18;;;;;;;4.47;3.20;;;14.70;99.90;;;;;;5116540;28;20173;-65
2022/05/30 08:32:45;;;;;;;4.63;3.43;;;15.00;99.90;;;;;;5115923;28;20561;-65
2022/05/30 08:35:18;;;;;;;3.77;3.07;;;15.20;99.90;;;;;;5098242;28;20527;-66
2022/05/30 08:37:45;;;;;;;3.67;3.27;;;15.10;99.90;;;;;;5116037;28;20163;-65
2022/05/30 08:42:56;;;;;;;5.20;3.13;;;14.40;99.90;;;;;;5115481;28;20168;-65
2022/05/30 08:45:25;;;;;;;4.10;2.80;;;14.40;99.90;;;;;;5115883;28;20257;-65
2022/05/30 08:47:54;;;;;;;3.17;2.87;;;14.50;99.90;;;;;;5115622;28;20205;-66
2022/05/30 08:50:47;;;;;;;49.37;13.83;;;14.60;99.90;;;;;;5115853;28;20250;-64
2022/05/30 08:53:35;;;;;;;5.10;2.83;;;14.50;99.90;;;;;;5115592;28;20601;-67
2022/05/30 08:56:17;;;;;;;3.43;2.60;;;14.90;99.90;;;;;;5115525;28;20162;-65
2022/05/30 08:58:52;;;;;;;4.20;2.40;;;15.50;99.90;;;;;;5115185;28;20194;-64
2022/05/30 09:01:24;;;;;;;4.27;2.60;;;16.00;99.90;;;;;;5115337;28;20614;-63
2022/05/30 09:04:09;;;;;;;6.57;2.63;;;15.90;99.90;;;;;;5115654;28;20170;-64
2022/05/30 09:07:08;;;;;;;2.77;2.47;;;15.70;99.90;;;;;;5115591;28;20162;-64
2022/05/30 09:09:43;;;;;;;2.33;2.13;;;15.70;99.90;;;;;;5106394;28;20202;-64
2022/05/30 09:12:22;;;;;;;10.53;2.87;;;15.20;99.90;;;;;;5115267;28;20561;-64
2022/05/30 09:15:11;;;;;;;3.80;3.00;;;15.60;99.90;;;;;;5115230;28;20166;-64
2022/05/30 09:17:57;;;;;;;3.90;2.80;;;16.10;99.90;;;;;;5115193;28;20246;-66
2022/05/30 09:20:24;;;;;;;3.53;3.00;;;16.30;99.90;;;;;;5115539;28;20169;-63
2022/05/30 09:22:51;;;;;;;3.38;2.65;;;16.70;99.90;;;;;;5115081;28;20170;-66
2022/05/30 09:28:06;;;;;;;2.40;2.20;;;16.10;99.90;;;;;;5115547;28;20264;-65
2022/05/30 09:30:56;;;;;;;2.92;2.55;;;15.50;99.90;;;;;;5114925;28;20465;-66
2022/05/30 09:33:28;;;;;;;3.20;2.67;;;15.40;99.90;;;;;;5114000;28;20190;-64
2022/05/30 09:36:19;;;;;;;4.33;2.30;;;16.10;99.90;;;;;;5114953;28;20162;-65
2022/05/30 09:38:49;;;;;;;3.13;2.77;;;16.20;99.90;;;;;;5114439;28;20245;-64
2022/05/30 09:41:21;;;;;;;3.13;2.47;;;16.30;99.90;;;;;;5114548;28;20166;-65
2022/05/30 09:43:50;;;;;;;4.77;2.17;;;16.20;99.90;;;;;;5114391;28;20155;-66
2022/05/30 09:46:18;;;;;;;2.42;2.22;;;15.70;99.90;;;;;;5114196;28;20249;-64
2022/05/30 09:49:07;;;;;;;5.03;2.47;;;16.10;99.90;;;;;;5114055;28;20198;-65
2022/05/30 09:51:42;;;;;;;2.53;2.20;;;16.70;99.30;;;;;;5101236;28;20502;-64
2022/05/30 09:54:29;;;;;;;2.38;2.05;;;16.70;97.90;;;;;;5114800;28;20188;-64
2022/05/30 09:57:04;;;;;;;1.80;1.67;;;16.20;99.90;;;;;;5114406;28;20590;-64
2022/05/30 09:59:35;;;;;;;2.63;1.70;;;16.00;99.90;;;;;;5114365;28;20162;-66
2022/05/30 10:02:03;;;;;;;3.07;2.10;;;15.80;99.90;;;;;;5114601;28;20642;-64
2022/05/30 10:04:41;;;;;;;3.38;1.77;;;15.40;99.90;;;;;;5114717;28;20254;-64
2022/05/30 10:07:13;;;;;;;3.10;2.10;;;15.40;99.90;;;;;;5113763;28;20581;-63
2022/05/30 10:10:01;;;;;;;3.83;2.20;;;15.70;99.90;;;;;;5113554;28;20158;-64
2022/05/30 10:12:30;;;;;;;2.23;1.80;;;16.90;99.90;;;;;;5113819;28;20618;-67
2022/05/30 10:14:56;;;;;;;2.73;1.60;;;17.10;98.20;;;;;;5113694;28;20219;-67
2022/05/30 10:17:29;;;;;;;6.53;2.08;;;17.60;94.90;;;;;;5114539;28;20173;-66
2022/05/30 10:19:56;;;;;;;2.20;2.00;;;17.90;93.20;;;;;;5113553;28;20566;-64
2022/05/30 10:28:43;;;;;;;3.15;2.10;;;18.20;92.50;;;;;;5114068;28;20667;-64
2022/05/30 10:31:41;;;;;;;3.03;2.50;;;17.10;94.70;;;;;;5113880;28;20658;-63
2022/05/30 10:34:14;;;;;;;2.65;1.92;;;16.50;98.30;;;;;;5113943;28;20219;-67
2022/05/30 10:37:18;;;;;;;2.60;2.10;;;16.20;99.90;;;;;;5114045;28;20171;-65
2022/05/30 10:40:05;;;;;;;2.30;1.90;;;15.80;99.90;;;;;;5113567;28;20485;-65
2022/05/30 10:42:40;;;;;;;2.23;1.60;;;15.70;99.90;;;;;;5113499;28;20327;-64
2022/05/30 10:45:21;;;;;;;1.50;1.40;;;15.60;99.90;;;;;;5113202;28;20161;-65
2022/05/30 10:47:51;;;;;;;2.40;1.63;;;15.30;99.90;;;;;;5113355;28;20201;-65
2022/05/30 10:50:42;;;;;;;2.13;1.93;;;15.10;99.90;;;;;;5113233;28;20158;-65
2022/05/30 10:53:16;;;;;;;3.20;2.07;;;14.90;99.90;;;;;;5113547;28;20153;-65
2022/05/30 10:55:47;;;;;;;2.60;2.27;;;15.00;99.90;;;;;;5113082;28;20161;-66
2022/05/30 10:58:25;;;;;;;2.73;1.80;;;15.40;99.90;;;;;;5113149;28;20158;-64
2022/05/30 11:00:55;;;;;;;2.50;1.97;;;15.80;99.90;;;;;;5113364;28;20183;-65
2022/05/30 11:03:28;;;;;;;2.30;1.70;;;16.10;99.90;;;;;;5113611;28;20185;-64
2022/05/30 11:06:11;;;;;;;2.10;1.90;;;16.60;99.90;;;;;;5113769;28;20162;-66
2022/05/30 11:08:54;;;;;;;1.93;1.67;;;16.30;99.90;;;;;;5113595;28;20260;-66
2022/05/30 11:11:23;;;;;;;2.20;1.73;;;16.50;99.90;;;;;;5113429;28;20173;-64
2022/05/30 11:13:55;;;;;;;2.23;1.93;;;16.70;99.90;;;;;;5113333;28;20267;-65
2022/05/30 11:16:47;;;;;;;3.10;2.10;;;16.50;99.90;;;;;;5113147;28;20520;-65
2022/05/30 11:19:31;;;;;;;1.50;1.40;;;16.50;99.90;;;;;;5095751;28;20598;-65
2022/05/30 11:22:03;;;;;;;1.60;1.30;;;16.10;99.90;;;;;;5117871;28;20162;-66
2022/05/30 11:24:30;;;;;;;1.97;1.40;;;15.80;99.90;;;;;;5117393;28;20169;-64
2022/05/30 11:27:36;;;;;;;3.00;1.40;;;15.70;99.90;;;;;;5117341;28;20543;-66
2022/05/30 11:30:19;;;;;;;1.50;1.30;;;15.70;99.90;;;;;;5117760;28;20170;-65
2022/05/30 11:33:12;;;;;;;2.17;1.40;;;15.50;99.90;;;;;;5117903;28;20166;-65
2022/05/30 11:36:00;;;;;;;1.37;1.20;;;15.60;99.90;;;;;;5118026;28;20233;-65
2022/05/30 11:38:51;;;;;;;1.97;1.80;;;15.40;99.90;;;;;;5117866;28;20182;-64
2022/05/30 11:41:50;;;;;;;2.20;1.97;;;15.30;99.90;;;;;;5117402;28;20162;-64
2022/05/30 11:44:57;;;;;;;3.60;2.30;;;15.40;99.90;;;;;;5117607;28;20227;-65
2022/05/30 11:47:30;;;;;;;2.40;2.20;;;15.50;99.90;;;;;;5097368;28;20214;-65
2022/05/30 11:50:08;;;;;;;4.53;1.90;;;15.40;99.90;;;;;;5117241;28;20163;-64
2022/05/30 11:52:59;;;;;;;3.63;2.03;;;15.70;99.90;;;;;;5116847;28;20162;-65
2022/05/30 11:55:26;;;;;;;3.70;2.40;;;16.70;99.90;;;;;;5116630;28;20159;-64
2022/05/30 11:57:54;;;;;;;3.13;2.30;;;17.80;99.90;;;;;;5117047;28;20603;-64
2022/05/30 12:00:32;;;;;;;3.35;1.88;;;17.50;99.90;;;;;;5116563;28;20614;-64
2022/05/30 12:03:37;;;;;;;2.97;1.65;;;17.00;99.90;;;;;;5116792;28;20530;-65
2022/05/30 12:06:24;;;;;;;2.83;1.60;;;16.80;99.90;;;;;;5014137;28;20231;-64
2022/05/30 12:08:49;;;;;;;4.13;1.90;;;16.70;99.90;;;;;;5109997;28;20213;-64
2022/05/30 12:11:30;;;;;;;3.80;1.77;;;17.40;99.90;;;;;;5116877;28;20177;-65
2022/05/30 12:14:17;;;;;;;2.17;1.98;;;17.70;99.60;;;;;;5116903;28;20476;-64
2022/05/30 12:17:02;;;;;;;3.10;2.47;;;18.00;97.00;;;;;;5116094;28;20224;-66
2022/05/30 12:25:35;;;;;;;2.15;1.95;;;18.20;95.30;;;;;;5060912;28;20269;-65
2022/05/30 12:28:06;;;;;;;2.13;1.70;;;17.50;93.00;;;;;;5116323;28;20229;-64
2022/05/30 12:30:41;;;;;;;2.10;1.90;;;17.00;94.60;;;;;;5116501;28;20226;-65
2022/05/30 12:33:28;;;;;;;2.33;2.05;;;16.80;96.40;;;;;;5115894;28;20197;-64
2022/05/30 12:36:06;;;;;;;2.42;1.90;;;16.50;98.50;;;;;;5115769;28;20663;-65
2022/05/30 12:38:54;;;;;;;2.38;1.77;;;16.50;98.20;;;;;;5116277;28;20161;-66
2022/05/30 12:41:30;;;;;;;2.28;1.60;;;16.70;97.60;;;;;;5116072;28;20228;-64
2022/05/30 12:43:56;;;;;;;2.50;1.60;;;16.80;97.10;;;;;;5116399;28;20169;-64
2022/05/30 12:46:50;;;;;;;1.58;1.45;;;17.20;96.10;;;;;;5116115;28;20582;-66
2022/05/30 12:49:31;;;;;;;2.83;1.48;;;17.30;97.20;;;;;;5115818;28;20286;-64
2022/05/30 12:52:04;;;;;;;2.50;1.50;;;17.10;97.40;;;;;;5115609;28;20167;-65
2022/05/30 12:54:57;;;;;;;8.45;1.73;;;16.90;97.70;;;;;;5115844;28;20602;-64
2022/05/30 12:57:36;;;;;;;5.05;1.90;;;16.90;97.60;;;;;;5098055;28;20182;-64
2022/05/30 13:00:14;;;;;;;1.38;1.27;;;16.90;98.00;;;;;;5115833;28;20585;-65
2022/05/30 13:03:03;;;;;;;1.92;1.40;;;16.80;96.20;;;;;;5115514;28;20208;-64
2022/05/30 13:05:36;;;;;;;4.28;1.65;;;16.90;96.10;;;;;;5115819;28;20241;-66
2022/05/30 13:08:22;;;;;;;8.73;5.22;;;17.50;95.40;;;;;;5115352;28;20190;-65
2022/05/30 13:10:52;;;;;;;1.75;1.50;;;18.40;94.70;;;;;;5115503;28;20245;-65
2022/05/30 13:13:28;;;;;;;3.00;1.80;;;18.20;92.00;;;;;;5115654;28;20541;-64
2022/05/30 13:16:01;;;;;;;1.50;1.40;;;17.70;90.70;;;;;;5115382;28;20158;-64
2022/05/30 13:18:27;;;;;;;4.07;1.40;;;17.70;91.40;;;;;;5115686;28;20267;-66
2022/05/30 13:21:01;;;;;;;1.83;1.40;;;18.50;90.70;;;;;;5114753;28;20202;-64
2022/05/30 13:23:33;;;;;;;2.00;1.40;;;18.20;88.60;;;;;;5115441;28;20246;-65
2022/05/30 13:26:00;;;;;;;1.95;1.60;;;17.80;91.10;;;;;;5115664;28;20170;-64
2022/05/30 13:28:34;;;;;;;2.00;1.58;;;17.40;91.60;;;;;;5115710;28;20236;-64
2022/05/30 13:31:06;;;;;;;1.75;1.65;;;17.30;92.70;;;;;;5115295;28;20397;-64